createdAt,value
2023-05-16T00:01:30.548Z,100.00
2023-05-16T00:06:33.254Z,100.00
2023-05-16T00:11:35.991Z,100.00
2023-05-16T00:16:41.687Z,100.00
2023-05-16T00:21:44.977Z,100.00
2023-05-16T00:26:47.604Z,100.00
2023-05-16T00:31:52.137Z,100.00
2023-05-16T00:36:55.224Z,100.00
2023-05-16T00:41:57.922Z,100.00
2023-05-16T00:47:02.737Z,100.00
2023-05-16T00:52:06.106Z,100.00
2023-05-16T00:57:09.129Z,100.00
2023-05-16T01:02:14.178Z,100.00
2023-05-16T01:07:17.044Z,100.00
2023-05-16T01:12:31.027Z,100.00
2023-05-16T01:17:46.887Z,100.00
2023-05-16T01:23:06.611Z,100.00
2023-05-16T01:28:11.562Z,100.00
2023-05-16T01:33:14.375Z,100.00
2023-05-16T01:38:25.798Z,100.00
2023-05-16T01:43:35.373Z,100.00
2023-05-16T01:48:44.258Z,100.00
2023-05-16T01:53:47.639Z,100.00
2023-05-16T01:58:54.592Z,100.00
2023-05-16T02:03:57.621Z,100.00
2023-05-16T02:09:00.191Z,100.00
2023-05-16T02:14:04.543Z,100.00
2023-05-16T02:19:07.169Z,100.00
2023-05-16T02:24:09.792Z,100.00
2023-05-16T02:29:15.053Z,100.00
2023-05-16T02:34:17.673Z,100.00
2023-05-16T02:39:20.537Z,100.00
2023-05-16T02:44:27.575Z,100.00
2023-05-16T02:49:30.196Z,100.00
2023-05-16T02:54:33.576Z,100.00
2023-05-16T02:59:37.561Z,100.00
2023-05-16T03:04:40.514Z,100.00
2023-05-16T03:09:43.118Z,100.00
2023-05-16T03:14:47.018Z,100.00
2023-05-16T03:19:50.239Z,100.00
2023-05-16T03:24:52.770Z,100.00
2023-05-16T03:29:56.653Z,100.00
2023-05-16T03:34:59.313Z,100.00
2023-05-16T03:40:04.966Z,100.00
2023-05-16T03:45:09.942Z,100.00
2023-05-16T03:50:12.865Z,100.00
2023-05-16T03:55:16.434Z,100.00
2023-05-16T04:00:20.414Z,100.00
2023-05-16T04:05:23.213Z,100.00
2023-05-16T04:10:25.869Z,100.00
2023-05-16T04:15:30.306Z,100.00
2023-05-16T04:20:33.146Z,100.00
2023-05-16T04:25:36.049Z,100.00
2023-05-16T04:30:39.978Z,100.00
2023-05-16T04:35:42.997Z,100.00
2023-05-16T04:40:45.722Z,100.00
2023-05-16T04:45:50.620Z,100.00
2023-05-16T04:50:53.392Z,100.00
2023-05-16T04:55:55.971Z,100.00
2023-05-16T05:01:01.906Z,100.00
2023-05-16T05:06:04.806Z,100.00
2023-05-16T05:11:07.364Z,100.00
2023-05-16T05:16:11.638Z,100.00
2023-05-16T05:21:14.266Z,100.00
2023-05-16T05:26:16.899Z,100.00
2023-05-16T05:31:20.884Z,100.00
2023-05-16T05:36:23.866Z,100.00
2023-05-16T05:41:27.165Z,100.00
2023-05-16T05:46:31.524Z,100.00
2023-05-16T05:51:34.263Z,100.00
2023-05-16T05:56:36.971Z,100.00
2023-05-16T06:01:41.324Z,100.00
2023-05-16T06:06:43.867Z,100.00
2023-05-16T06:11:46.474Z,100.00
2023-05-16T06:16:50.481Z,100.00
2023-05-16T06:21:53.096Z,100.00
2023-05-16T06:26:55.625Z,100.00
2023-05-16T06:31:59.723Z,100.00
2023-05-16T06:37:03.617Z,100.00
2023-05-16T06:42:07.026Z,100.00
2023-05-16T06:47:11.133Z,100.00
2023-05-16T06:52:13.741Z,100.00
2023-05-16T06:57:17.894Z,100.00
2023-05-16T07:02:22.343Z,100.00
2023-05-16T07:07:25.071Z,100.00
2023-05-16T07:12:27.695Z,100.00
2023-05-16T07:17:31.703Z,98.19
2023-05-16T07:22:34.344Z,100.00
2023-05-16T07:27:36.914Z,99.09
2023-05-16T07:32:41.115Z,99.20
2023-05-16T07:37:43.960Z,94.87
2023-05-16T07:42:46.522Z,96.28
2023-05-16T08:23:47.553Z,97.63
2023-05-16T08:28:50.451Z,100.00
2023-05-16T08:33:53.023Z,92.06
2023-05-16T08:38:59.435Z,90.54
2023-05-16T08:44:02.216Z,92.75
2023-05-16T08:49:07.923Z,92.29
2023-05-16T08:54:14.136Z,91.88
2023-05-16T08:59:17.177Z,88.33
2023-05-16T09:04:20.563Z,87.40
2023-05-16T09:09:24.890Z,87.62
2023-05-16T09:14:27.471Z,86.23
2023-05-16T09:19:38.109Z,88.85
2023-05-16T09:24:43.247Z,89.38
2023-05-16T09:29:51.289Z,92.33
2023-05-16T09:34:57.654Z,92.98
2023-05-16T09:40:01.927Z,91.85
2023-05-16T09:45:05.156Z,94.63
2023-05-16T09:50:09.095Z,93.16
2023-05-16T09:55:13.072Z,89.05
2023-05-16T10:00:16.620Z,91.97
2023-05-16T10:05:19.454Z,90.67
2023-05-16T10:10:24.534Z,90.68
2023-05-16T10:15:29.270Z,92.98
2023-05-16T10:20:32.796Z,90.54
2023-05-16T10:25:41.666Z,92.56
2023-05-16T10:30:46.238Z,91.31
2023-05-16T10:35:49.008Z,87.04
2023-05-16T10:40:53.671Z,86.78
2023-05-16T10:45:57.262Z,89.22
2023-05-16T10:51:00.483Z,89.40
2023-05-16T10:56:10.107Z,83.80
2023-05-16T11:01:17.035Z,84.53
2023-05-16T11:06:24.835Z,80.95
2023-05-16T11:11:45.574Z,78.82
2023-05-16T11:16:52.462Z,81.60
2023-05-16T11:22:08.971Z,88.01
2023-05-16T11:27:15.150Z,89.05
2023-05-16T11:32:22.029Z,91.20
2023-05-16T11:37:24.807Z,89.73
2023-05-16T11:42:33.862Z,83.79
2023-05-16T11:47:38.344Z,83.29
2023-05-16T11:52:41.644Z,86.33
2023-05-16T11:57:45.583Z,78.82
2023-05-16T12:02:50.894Z,72.79
2023-05-16T12:07:54.969Z,74.54
2023-05-16T12:12:59.150Z,76.84
2023-05-16T12:18:02.466Z,71.34
2023-05-16T12:23:05.526Z,66.82
2023-05-16T12:28:10.035Z,67.59
2023-05-16T12:33:14.060Z,66.55
2023-05-16T12:38:18.212Z,68.93
2023-05-16T12:43:23.735Z,69.59
2023-05-16T12:48:35.712Z,63.48
2023-05-16T12:53:43.399Z,65.58
2023-05-16T12:58:52.165Z,63.10
2023-05-16T13:03:54.845Z,63.86
2023-05-16T13:08:57.678Z,64.08
2023-05-16T13:14:01.620Z,62.38
2023-05-16T13:19:05.303Z,67.23
2023-05-16T13:24:08.059Z,71.99
2023-05-16T13:29:12.247Z,67.57
2023-05-16T13:34:14.810Z,64.63
2023-05-16T13:39:17.938Z,59.42
2023-05-16T13:44:22.483Z,62.75
2023-05-16T13:49:25.389Z,64.42
2023-05-16T13:54:28.315Z,64.02
2023-05-16T13:59:56.782Z,57.27
2023-05-16T14:04:54.987Z,61.14
2023-05-16T14:09:57.604Z,63.37
2023-05-16T14:15:01.595Z,63.21
2023-05-16T14:20:08.528Z,64.54
2023-05-16T14:25:11.199Z,64.56
2023-05-16T14:30:15.480Z,67.28
2023-05-16T14:35:18.225Z,69.69
2023-05-16T14:40:21.601Z,69.14
2023-05-16T14:45:25.840Z,69.59
2023-05-16T14:50:28.931Z,71.21
2023-05-16T14:55:31.815Z,69.98
2023-05-16T15:00:36.146Z,73.24
2023-05-16T15:05:40.632Z,73.90
2023-05-16T15:10:44.599Z,73.59
2023-05-16T15:15:48.898Z,76.55
2023-05-16T15:20:53.159Z,77.18
2023-05-16T15:25:56.109Z,79.17
2023-05-16T15:31:00.248Z,80.73
2023-05-16T15:36:03.344Z,81.14
2023-05-16T15:41:18.562Z,81.41
2023-05-16T15:46:32.970Z,83.35
2023-05-16T15:51:36.545Z,84.03
2023-05-16T15:56:39.801Z,86.67
2023-05-16T16:01:44.294Z,84.39
2023-05-16T16:06:47.767Z,85.92
2023-05-16T16:11:56.444Z,82.09
2023-05-16T16:17:00.809Z,82.34
2023-05-16T16:22:03.694Z,84.39
2023-05-16T16:27:07.215Z,84.54
2023-05-16T16:32:11.732Z,86.02
2023-05-16T16:37:14.965Z,88.08
2023-05-16T16:42:17.693Z,88.98
2023-05-16T16:47:23.055Z,87.68
2023-05-16T16:52:26.237Z,88.95
2023-05-16T16:57:29.720Z,89.12
2023-05-16T17:02:33.813Z,90.25
2023-05-16T17:07:36.540Z,86.37
2023-05-16T17:12:46.034Z,86.52
2023-05-16T17:17:49.985Z,85.82
2023-05-16T17:22:52.593Z,86.23
2023-05-16T17:27:55.910Z,88.38
2023-05-16T17:33:00.324Z,87.71
2023-05-16T17:38:03.469Z,87.15
2023-05-16T17:43:06.705Z,88.78
2023-05-16T17:48:11.342Z,87.96
2023-05-16T17:53:14.269Z,88.79
2023-05-16T17:58:17.935Z,89.82
2023-05-16T18:03:22.290Z,88.96
2023-05-16T18:08:25.226Z,89.55
2023-05-16T18:13:29.036Z,89.70
2023-05-16T18:18:37.131Z,90.62
2023-05-16T18:23:39.791Z,90.48
2023-05-16T18:28:43.493Z,92.51
2023-05-16T18:33:47.904Z,92.10
2023-05-16T18:38:51.070Z,91.49
2023-05-16T18:43:54.244Z,93.67
2023-05-16T18:48:58.541Z,94.23
2023-05-16T18:54:01.440Z,95.07
2023-05-16T18:59:04.274Z,96.63
2023-05-16T19:04:08.766Z,98.21
2023-05-16T19:09:12.309Z,98.35
2023-05-16T19:14:14.957Z,99.71
2023-05-16T19:19:19.276Z,99.65
2023-05-16T19:24:22.485Z,99.13
2023-05-16T19:29:25.303Z,100.00
2023-05-16T19:34:29.507Z,100.00
2023-05-16T19:39:32.253Z,100.00
2023-05-16T19:44:35.018Z,100.00
2023-05-16T19:49:39.084Z,100.00
2023-05-16T19:54:41.763Z,100.00
2023-05-16T19:59:44.335Z,100.00
2023-05-16T20:04:48.387Z,100.00
2023-05-16T20:09:51.390Z,100.00
2023-05-16T20:14:56.684Z,100.00
2023-05-16T20:20:01.490Z,100.00
2023-05-16T20:25:04.600Z,100.00
2023-05-16T20:30:08.741Z,100.00
2023-05-16T20:35:14.676Z,100.00
2023-05-16T20:40:17.343Z,100.00
2023-05-16T20:45:20.452Z,100.00
2023-05-16T20:50:24.379Z,100.00
2023-05-16T20:55:27.120Z,100.00
2023-05-16T21:00:29.971Z,100.00
2023-05-16T21:05:36.184Z,100.00
2023-05-16T21:10:39.149Z,100.00
2023-05-16T21:15:41.776Z,100.00
2023-05-16T21:20:45.839Z,100.00
2023-05-16T21:25:48.461Z,100.00
2023-05-16T21:30:51.055Z,100.00
2023-05-16T21:35:55.053Z,100.00
2023-05-16T21:40:57.982Z,100.00
2023-05-16T21:46:00.576Z,100.00
2023-05-16T21:51:04.814Z,100.00
2023-05-16T21:56:08.117Z,100.00
2023-05-16T22:01:10.945Z,100.00
2023-05-16T22:06:14.885Z,100.00
2023-05-16T22:11:17.619Z,100.00
2023-05-16T22:16:20.350Z,100.00
2023-05-16T22:21:24.330Z,100.00
2023-05-16T22:26:26.953Z,100.00
2023-05-16T22:31:29.630Z,100.00
2023-05-16T22:36:33.591Z,100.00
2023-05-16T22:41:36.673Z,100.00
2023-05-16T22:46:39.338Z,100.00
2023-05-16T22:51:43.284Z,100.00
2023-05-16T22:56:46.414Z,100.00
2023-05-16T23:01:49.052Z,100.00
2023-05-16T23:06:53.156Z,100.00
2023-05-16T23:11:55.733Z,100.00
2023-05-16T23:16:58.331Z,100.00
2023-05-16T23:22:03.333Z,100.00
2023-05-16T23:27:06.330Z,100.00
2023-05-16T23:32:09.186Z,100.00
2023-05-16T23:37:13.083Z,100.00
2023-05-16T23:42:16.028Z,100.00
2023-05-16T23:47:18.707Z,100.00
2023-05-16T23:52:22.621Z,100.00
2023-05-16T23:57:25.263Z,100.00
